West Hebron, New York
Current Conditions -  °F | °C
As of 2:53 PM on Sunday 23 Nov 2014 (Local Time) from KGFL Reporting Station
Broken Clouds Broken Clouds  
Wind Chill: 52°   Ceiling: 12000
Heat Index: 52°   Visibility: 10mi
Dew Point: 37°   Wind: 8mph
Humidity: 57%   Direction: 210°SSW
Pressure: 30.07"   Gusts: NA
Location:  43.2004°N, 73.3317°W
Report Text: KGFL 231953Z AUTO 21007KT 10SM BKN120 11/03 A3007 RMK AO2 SLP188 T01110028
Loading
Personal Weather Stations






























Interactive Weather Map New forecast layout! Learn more

10-Day Weather Forecast

Advertisements
Track Severe Weather on mobile